Time;durP1;ratioP1;P1;durP2;ratioP2;P2;SDS_P1;SDS_P2;PMS_P1;PMS_P2;Temp;Humidity;BMP_temperature;BMP_pressure;BME280_temperature;BME280_humidity;BME280_pressure;Samples;Min_cycle;Max_cycle;Signal;HPM_P1;HPM_P2
2023/06/11 00:01:16;;;;;;;8.40;7.53;;;21.60;99.90;;;;;;4972311;28;20543;-73
2023/06/11 00:03:43;;;;;;;11.13;7.67;;;21.50;99.90;;;;;;4964287;28;20467;-72
2023/06/11 00:06:11;;;;;;;7.77;7.07;;;21.50;99.90;;;;;;4971960;28;20963;-75
2023/06/11 00:08:37;;;;;;;8.20;7.40;;;21.50;99.90;;;;;;4964117;28;20541;-75
2023/06/11 00:11:06;;;;;;;9.00;7.30;;;21.50;99.90;;;;;;4965470;28;20450;-74
2023/06/11 00:13:32;;;;;;;8.00;6.93;;;21.50;99.90;;;;;;4963791;28;20500;-73
2023/06/11 00:16:00;;;;;;;7.73;7.03;;;21.50;99.90;;;;;;4968678;28;20453;-74
2023/06/11 00:18:27;;;;;;;8.97;7.17;;;21.40;99.90;;;;;;4963738;28;20941;-73
2023/06/11 00:20:56;;;;;;;7.43;6.47;;;21.50;99.90;;;;;;4973410;28;20453;-74
2023/06/11 00:23:23;;;;;;;10.87;7.50;;;21.50;99.90;;;;;;4970080;28;20520;-74
2023/06/11 00:25:52;;;;;;;8.40;7.30;;;21.50;99.90;;;;;;4973146;28;20453;-73
2023/06/11 00:28:20;;;;;;;7.60;6.90;;;21.40;99.90;;;;;;4971136;28;20899;-74
2023/06/11 00:30:47;;;;;;;9.63;7.40;;;21.50;99.90;;;;;;4968110;28;20861;-72
2023/06/11 00:33:14;;;;;;;9.00;6.20;;;21.50;99.80;;;;;;4972345;28;20548;-72
2023/06/11 00:35:41;;;;;;;8.83;6.80;;;21.50;99.80;;;;;;4988522;28;20504;-74
2023/06/11 00:38:09;;;;;;;6.63;5.90;;;21.50;99.60;;;;;;4973675;28;20438;-73
2023/06/11 00:40:35;;;;;;;8.43;6.80;;;21.50;99.60;;;;;;4971858;28;20981;-74
2023/06/11 00:43:04;;;;;;;7.23;6.53;;;21.40;99.40;;;;;;4971455;28;20465;-72
2023/06/11 00:45:32;;;;;;;15.73;7.10;;;21.40;99.50;;;;;;4975910;28;21246;-71
2023/06/11 00:47:59;;;;;;;7.43;6.37;;;21.40;99.30;;;;;;4977801;28;20523;-73
2023/06/11 00:50:26;;;;;;;7.87;6.13;;;21.40;99.30;;;;;;4973929;28;20457;-74
2023/06/11 00:52:52;;;;;;;12.40;7.07;;;21.30;99.30;;;;;;4970664;28;20476;-73
2023/06/11 00:55:21;;;;;;;7.77;6.00;;;21.30;99.20;;;;;;4969645;28;20481;-74
2023/06/11 00:57:48;;;;;;;8.10;6.70;;;21.20;99.00;;;;;;4969056;28;20544;-73
2023/06/11 01:00:15;;;;;;;6.33;5.70;;;21.20;98.80;;;;;;4971793;28;20450;-73
2023/06/11 01:02:47;;;;;;;11.33;6.03;;;21.10;98.50;;;;;;4965889;28;20471;-73
2023/06/11 01:05:17;;;;;;;6.40;5.80;;;21.10;98.10;;;;;;4966933;28;20457;-73
2023/06/11 01:07:50;;;;;;;6.17;4.80;;;21.10;98.00;;;;;;4967852;28;20449;-73
2023/06/11 01:10:18;;;;;;;8.00;6.00;;;21.00;97.70;;;;;;4968644;28;20511;-72
2023/06/11 01:12:45;;;;;;;9.37;6.10;;;20.90;97.60;;;;;;4967604;28;20469;-74
2023/06/11 01:15:13;;;;;;;6.13;5.43;;;20.90;97.30;;;;;;4970868;28;20495;-75
2023/06/11 01:17:47;;;;;;;10.00;5.63;;;20.80;97.20;;;;;;4972209;28;20944;-74
2023/06/11 01:20:18;;;;;;;9.77;5.80;;;20.80;97.00;;;;;;4970150;28;20470;-74
2023/06/11 01:23:04;;;;;;;8.90;5.37;;;20.70;96.50;;;;;;4965837;28;20833;-72
2023/06/11 01:25:35;;;;;;;6.07;5.57;;;20.70;96.60;;;;;;4967322;28;20461;-72
2023/06/11 01:28:07;;;;;;;11.10;5.30;;;20.70;96.30;;;;;;4965790;28;20499;-74
2023/06/11 01:30:36;;;;;;;6.33;5.70;;;20.60;95.90;;;;;;4961951;28;20457;-71
2023/06/11 01:33:03;;;;;;;8.70;5.53;;;20.60;95.80;;;;;;4967395;28;20924;-73
2023/06/11 01:35:30;;;;;;;7.60;5.03;;;20.50;95.50;;;;;;4967274;28;20595;-73
2023/06/11 01:37:58;;;;;;;8.93;5.10;;;20.50;95.10;;;;;;4968635;28;20454;-71
2023/06/11 01:40:26;;;;;;;5.83;4.63;;;20.40;95.20;;;;;;4966474;28;20947;-73
2023/06/11 01:42:54;;;;;;;6.97;5.53;;;20.40;94.70;;;;;;4965677;28;20479;-73
2023/06/11 01:45:23;;;;;;;6.90;4.77;;;20.30;94.50;;;;;;4969647;28;20515;-73
2023/06/11 01:47:50;;;;;;;6.00;4.80;;;20.20;94.30;;;;;;4969863;28;20445;-75
2023/06/11 01:50:19;;;;;;;8.40;6.27;;;20.20;94.20;;;;;;4965075;28;20506;-72
2023/06/11 01:52:45;;;;;;;6.93;5.30;;;20.10;94.10;;;;;;4964279;28;20561;-72
2023/06/11 01:55:13;;;;;;;6.60;5.03;;;20.10;93.90;;;;;;4963487;28;20519;-72
2023/06/11 01:57:40;;;;;;;8.30;5.33;;;20.00;94.00;;;;;;4965863;28;20648;-74
2023/06/11 02:00:10;;;;;;;8.33;5.07;;;20.00;93.90;;;;;;4969440;28;20446;-73
2023/06/11 02:02:39;;;;;;;10.17;5.60;;;19.90;93.90;;;;;;4969975;28;20465;-72
2023/06/11 02:05:07;;;;;;;6.97;5.10;;;19.90;94.00;;;;;;4958678;28;20453;-73
2023/06/11 02:07:34;;;;;;;7.90;5.17;;;19.80;94.10;;;;;;4965902;28;20497;-71
2023/06/11 02:10:01;;;;;;;7.00;4.80;;;19.80;94.10;;;;;;4962514;28;20484;-76
2023/06/11 02:12:28;;;;;;;15.27;5.47;;;19.70;94.20;;;;;;4967132;28;20537;-72
2023/06/11 02:14:54;;;;;;;8.30;5.17;;;19.60;94.10;;;;;;4964312;28;20476;-72
2023/06/11 02:17:21;;;;;;;5.97;4.53;;;19.60;94.10;;;;;;4971275;28;20475;-73
2023/06/11 02:19:50;;;;;;;5.80;4.87;;;19.50;94.20;;;;;;4965922;28;20508;-73
2023/06/11 02:22:17;;;;;;;10.97;6.10;;;19.50;94.20;;;;;;4963557;28;20549;-73
2023/06/11 02:24:44;;;;;;;6.87;4.80;;;19.50;93.90;;;;;;4974078;28;20521;-73
2023/06/11 02:27:12;;;;;;;6.37;5.03;;;19.40;93.80;;;;;;4966952;28;20810;-73
2023/06/11 02:29:39;;;;;;;5.30;4.80;;;19.30;93.90;;;;;;4970991;28;20544;-72
2023/06/11 02:32:07;;;;;;;10.10;5.37;;;19.30;93.70;;;;;;4970413;28;20447;-73
2023/06/11 02:34:34;;;;;;;5.77;5.13;;;19.30;93.60;;;;;;4972188;28;20482;-72
2023/06/11 02:37:04;;;;;;;9.20;5.70;;;19.20;93.50;;;;;;4976166;28;20487;-72
2023/06/11 02:39:31;;;;;;;10.40;5.10;;;19.20;93.60;;;;;;4971873;28;20536;-74
2023/06/11 02:41:57;;;;;;;8.40;5.83;;;19.20;93.60;;;;;;4968107;28;20540;-71
2023/06/11 02:44:24;;;;;;;6.37;4.93;;;19.10;93.70;;;;;;4969885;28;20916;-73
2023/06/11 02:46:51;;;;;;;6.80;5.50;;;19.10;93.50;;;;;;4967789;28;20464;-75
2023/06/11 02:49:18;;;;;;;7.40;5.40;;;19.00;93.50;;;;;;4966734;28;20828;-72
2023/06/11 02:51:45;;;;;;;8.20;4.67;;;19.00;93.50;;;;;;4972383;28;20450;-73
2023/06/11 02:54:13;;;;;;;9.30;4.83;;;19.00;93.50;;;;;;4972864;28;20449;-73
2023/06/11 02:56:40;;;;;;;6.47;4.63;;;18.90;93.60;;;;;;4988573;28;20444;-71
2023/06/11 02:59:07;;;;;;;6.87;5.10;;;18.90;93.70;;;;;;4965467;28;20452;-75
2023/06/11 03:01:34;;;;;;;8.63;5.93;;;18.90;93.70;;;;;;4969501;28;20467;-73
2023/06/11 03:04:00;;;;;;;10.67;5.40;;;18.80;93.70;;;;;;4969992;28;20463;-74
2023/06/11 03:06:27;;;;;;;7.60;5.10;;;18.80;93.90;;;;;;4970805;28;20540;-74
2023/06/11 03:08:55;;;;;;;5.10;4.40;;;18.80;94.00;;;;;;4968479;28;20460;-72
2023/06/11 03:11:23;;;;;;;4.90;4.07;;;18.80;93.90;;;;;;4964525;28;20565;-74
2023/06/11 03:13:50;;;;;;;7.00;4.60;;;18.80;93.80;;;;;;4967600;28;20545;-74
2023/06/11 03:16:17;;;;;;;7.77;5.20;;;18.70;93.90;;;;;;4971516;28;20499;-74
2023/06/11 03:18:44;;;;;;;5.90;4.70;;;18.70;93.70;;;;;;4969996;28;20561;-73
2023/06/11 03:21:11;;;;;;;8.53;5.30;;;18.70;93.90;;;;;;4972143;28;20445;-74
2023/06/11 03:23:38;;;;;;;9.60;5.30;;;18.70;93.80;;;;;;4968099;28;20472;-73
2023/06/11 03:26:05;;;;;;;9.33;4.87;;;18.70;93.80;;;;;;4971119;28;20523;-73
2023/06/11 03:28:33;;;;;;;5.20;4.13;;;18.70;93.80;;;;;;4969329;28;20452;-72
2023/06/11 03:31:00;;;;;;;6.03;4.30;;;18.70;93.80;;;;;;4968443;28;20446;-74
2023/06/11 03:33:27;;;;;;;10.93;5.20;;;18.60;93.70;;;;;;4970596;28;20868;-73
2023/06/11 03:35:54;;;;;;;9.20;4.33;;;18.60;93.80;;;;;;4966993;28;20490;-71
2023/06/11 03:38:21;;;;;;;4.50;3.97;;;18.60;93.80;;;;;;4966017;28;20444;-72
2023/06/11 03:40:48;;;;;;;6.90;5.00;;;18.60;93.70;;;;;;4966059;28;20538;-72
2023/06/11 03:43:15;;;;;;;7.47;5.07;;;18.60;93.70;;;;;;4969481;28;20498;-72
2023/06/11 03:45:43;;;;;;;6.40;4.10;;;18.50;93.70;;;;;;4970831;28;20466;-74
2023/06/11 03:48:10;;;;;;;13.90;4.00;;;18.50;93.70;;;;;;4969794;28;20875;-73
2023/06/11 03:50:37;;;;;;;7.57;4.60;;;18.50;93.90;;;;;;4969937;28;20530;-73
2023/06/11 03:53:03;;;;;;;7.93;4.67;;;18.50;93.70;;;;;;4971930;28;20478;-73
2023/06/11 03:55:30;;;;;;;7.60;4.17;;;18.50;93.50;;;;;;4968819;28;21040;-73
2023/06/11 03:57:57;;;;;;;7.30;4.30;;;18.60;93.50;;;;;;4967079;28;20497;-75
2023/06/11 04:00:26;;;;;;;4.53;3.50;;;18.60;93.50;;;;;;4968531;28;20449;-74
2023/06/11 04:02:55;;;;;;;7.93;4.00;;;18.60;93.50;;;;;;4972541;28;20872;-73
2023/06/11 04:05:21;;;;;;;5.20;3.10;;;18.60;93.30;;;;;;4968522;28;20913;-74
2023/06/11 04:07:48;;;;;;;6.20;3.90;;;18.60;93.40;;;;;;4974033;28;20434;-72
2023/06/11 04:10:16;;;;;;;7.97;4.50;;;18.60;93.20;;;;;;4967887;28;20535;-73
2023/06/11 04:12:43;;;;;;;8.30;4.20;;;18.50;93.10;;;;;;4972392;28;20500;-74
2023/06/11 04:15:12;;;;;;;8.03;3.57;;;18.60;93.20;;;;;;4973606;28;20474;-76
2023/06/11 04:17:39;;;;;;;6.30;4.47;;;18.60;93.00;;;;;;4968969;28;20446;-73
2023/06/11 04:20:09;;;;;;;5.53;4.03;;;18.70;93.00;;;;;;4968871;28;20512;-73
2023/06/11 04:22:36;;;;;;;5.67;3.40;;;18.80;92.90;;;;;;4969150;28;20478;-73
2023/06/11 04:25:03;;;;;;;6.73;3.50;;;19.00;92.50;;;;;;4968678;28;20513;-73
2023/06/11 04:27:33;;;;;;;8.77;4.30;;;19.50;92.20;;;;;;4969775;28;20454;-73
2023/06/11 04:30:02;;;;;;;5.50;3.57;;;20.10;91.30;;;;;;4965260;28;20448;-72
2023/06/11 04:32:34;;;;;;;6.53;3.13;;;20.60;90.70;;;;;;4965992;28;20972;-72
2023/06/11 04:35:02;;;;;;;6.30;4.13;;;21.30;89.20;;;;;;4972469;28;20519;-74
2023/06/11 04:37:30;;;;;;;7.00;3.90;;;21.70;87.70;;;;;;4971122;28;20450;-71
2023/06/11 04:40:05;;;;;;;3.93;3.20;;;22.20;86.50;;;;;;4969197;28;20451;-73
2023/06/11 04:42:32;;;;;;;4.57;3.20;;;22.50;84.60;;;;;;4966251;28;20474;-72
2023/06/11 04:44:59;;;;;;;6.97;3.70;;;23.00;84.10;;;;;;4967408;28;20943;-73
2023/06/11 04:47:32;;;;;;;11.83;3.73;;;23.50;82.70;;;;;;4967360;28;20637;-73
2023/06/11 04:50:03;;;;;;;4.10;3.20;;;23.80;80.50;;;;;;4964930;28;20522;-73
2023/06/11 04:52:32;;;;;;;4.27;3.77;;;24.10;79.70;;;;;;4969596;28;20983;-73
2023/06/11 04:55:01;;;;;;;4.80;3.23;;;24.20;78.60;;;;;;4961183;28;20505;-73
2023/06/11 04:57:28;;;;;;;4.50;3.43;;;24.30;77.50;;;;;;4968450;28;20460;-73
2023/06/11 04:59:55;;;;;;;5.20;3.37;;;24.60;77.70;;;;;;4962661;28;20956;-71
2023/06/11 05:02:22;;;;;;;5.40;3.37;;;24.60;76.70;;;;;;4965254;28;20480;-73
2023/06/11 05:04:53;;;;;;;8.13;3.97;;;24.80;76.30;;;;;;4967916;28;20883;-72
2023/06/11 05:07:20;;;;;;;8.57;3.57;;;25.00;75.90;;;;;;4968835;28;20464;-72
2023/06/11 05:09:48;;;;;;;8.17;3.73;;;25.30;74.90;;;;;;4964541;28;20450;-74
2023/06/11 05:12:15;;;;;;;7.90;3.30;;;25.70;74.10;;;;;;4975396;28;20481;-72
2023/06/11 05:14:43;;;;;;;5.53;3.60;;;25.70;73.00;;;;;;4966119;28;20526;-71
2023/06/11 05:17:10;;;;;;;4.43;3.20;;;26.00;73.20;;;;;;4972337;28;21010;-73
2023/06/11 05:19:37;;;;;;;6.87;3.93;;;25.90;72.10;;;;;;4984769;28;20540;-71
2023/06/11 05:22:05;;;;;;;12.90;4.70;;;25.80;72.00;;;;;;4972842;28;20990;-73
2023/06/11 05:24:31;;;;;;;6.43;4.27;;;25.60;72.20;;;;;;4966987;28;20487;-73
2023/06/11 05:27:01;;;;;;;5.70;3.97;;;26.00;72.00;;;;;;4973040;28;20985;-74
2023/06/11 05:29:28;;;;;;;9.60;3.70;;;26.20;71.30;;;;;;4968636;28;20453;-73
2023/06/11 05:31:56;;;;;;;6.13;3.63;;;26.50;70.60;;;;;;4968909;28;20939;-73
2023/06/11 05:34:25;;;;;;;6.97;3.87;;;26.90;69.70;;;;;;4963593;28;20934;-73
2023/06/11 05:36:53;;;;;;;5.93;3.40;;;27.00;69.40;;;;;;4969170;28;20540;-74
2023/06/11 05:39:20;;;;;;;4.90;3.50;;;27.30;69.20;;;;;;4966043;28;20457;-73
2023/06/11 05:41:47;;;;;;;6.30;3.50;;;27.50;67.90;;;;;;4967815;28;20811;-73
2023/06/11 05:44:17;;;;;;;5.47;3.50;;;27.60;67.80;;;;;;4966924;28;20457;-73
2023/06/11 05:46:43;;;;;;;5.10;3.20;;;27.70;67.00;;;;;;4974141;28;21095;-72
2023/06/11 05:49:10;;;;;;;5.03;3.20;;;27.90;66.30;;;;;;4966697;28;20492;-72
2023/06/11 05:51:37;;;;;;;4.20;3.50;;;28.10;66.20;;;;;;4967667;28;20536;-72
2023/06/11 05:54:04;;;;;;;10.70;5.00;;;28.20;66.10;;;;;;4967886;28;20566;-74
2023/06/11 05:56:31;;;;;;;5.27;3.63;;;28.90;65.30;;;;;;4971011;28;20489;-72
2023/06/11 05:58:58;;;;;;;7.17;4.30;;;29.30;64.10;;;;;;4969784;28;20477;-73
2023/06/11 06:01:26;;;;;;;10.10;5.30;;;29.20;63.90;;;;;;4973156;28;20442;-72
2023/06/11 06:03:53;;;;;;;3.90;3.50;;;29.60;63.00;;;;;;4971433;28;20568;-73
2023/06/11 06:06:20;;;;;;;5.40;3.50;;;30.10;61.80;;;;;;4965627;28;20538;-74
2023/06/11 06:08:46;;;;;;;7.77;3.93;;;30.40;60.80;;;;;;4969334;28;20446;-74
2023/06/11 06:11:13;;;;;;;6.70;3.73;;;30.40;60.40;;;;;;4968718;28;20805;-73
2023/06/11 06:13:40;;;;;;;4.57;4.03;;;30.40;60.40;;;;;;4968594;28;20463;-71
2023/06/11 06:16:07;;;;;;;7.97;4.17;;;30.80;60.00;;;;;;4970052;28;20481;-72
2023/06/11 06:18:37;;;;;;;4.00;3.60;;;31.10;59.60;;;;;;4967625;28;20454;-74
2023/06/11 06:21:04;;;;;;;8.57;4.13;;;31.40;59.10;;;;;;4962154;28;20477;-73
2023/06/11 06:23:31;;;;;;;7.07;3.60;;;31.90;58.60;;;;;;4963722;28;20470;-73
2023/06/11 06:25:58;;;;;;;13.00;3.83;;;32.00;58.20;;;;;;4968883;28;20537;-74
2023/06/11 06:28:25;;;;;;;6.10;5.07;;;32.40;57.00;;;;;;4967104;28;20477;-73
2023/06/11 06:30:52;;;;;;;5.17;4.20;;;32.70;56.00;;;;;;4966695;28;20814;-71
2023/06/11 06:33:19;;;;;;;6.50;4.47;;;32.70;55.80;;;;;;4969253;28;20469;-74
2023/06/11 06:35:47;;;;;;;5.40;4.90;;;32.60;55.40;;;;;;4966396;28;20525;-75
2023/06/11 06:38:14;;;;;;;6.70;5.10;;;32.20;55.30;;;;;;4968773;28;20532;-74
2023/06/11 06:40:41;;;;;;;5.90;4.30;;;31.90;55.80;;;;;;4963966;28;20456;-71
2023/06/11 06:43:09;;;;;;;6.23;4.80;;;32.10;55.70;;;;;;4964601;28;20894;-72
2023/06/11 06:45:38;;;;;;;7.93;4.57;;;31.90;55.40;;;;;;4970120;28;20448;-73
2023/06/11 06:48:05;;;;;;;8.70;5.40;;;31.60;55.80;;;;;;4963680;28;20441;-74
2023/06/11 06:50:32;;;;;;;5.00;4.50;;;31.40;56.30;;;;;;4967105;28;20540;-73
2023/06/11 06:53:00;;;;;;;5.83;5.33;;;31.80;56.30;;;;;;4969560;28;20893;-72
2023/06/11 06:55:27;;;;;;;6.10;5.13;;;32.00;55.70;;;;;;4966246;28;20454;-74
2023/06/11 06:57:54;;;;;;;6.80;5.13;;;32.40;55.20;;;;;;4967839;28;20445;-73
2023/06/11 07:00:21;;;;;;;7.43;5.63;;;32.60;54.80;;;;;;4962302;28;21013;-72
2023/06/11 07:02:47;;;;;;;6.90;5.23;;;32.70;54.50;;;;;;4968622;28;20583;-72
2023/06/11 07:05:15;;;;;;;6.23;5.63;;;32.80;54.30;;;;;;4970308;28;20463;-72
2023/06/11 07:07:42;;;;;;;6.30;5.57;;;32.40;54.80;;;;;;4967932;28;20430;-72
2023/06/11 07:10:11;;;;;;;8.50;6.00;;;32.60;54.70;;;;;;4965770;28;20504;-72
2023/06/11 07:12:37;;;;;;;5.97;5.37;;;33.10;54.20;;;;;;4966216;28;20468;-74
2023/06/11 07:15:07;;;;;;;10.03;5.70;;;33.50;53.60;;;;;;4968004;28;20530;-70
2023/06/11 07:17:34;;;;;;;6.20;5.60;;;33.90;52.70;;;;;;4969444;28;20592;-73
2023/06/11 07:20:01;;;;;;;7.97;5.43;;;33.70;52.90;;;;;;4965649;28;20461;-74
2023/06/11 07:22:28;;;;;;;7.33;6.60;;;34.20;52.60;;;;;;4967398;28;20472;-74
2023/06/11 07:24:56;;;;;;;6.70;6.10;;;34.50;52.30;;;;;;4967077;28;20473;-72
2023/06/11 07:27:24;;;;;;;8.00;6.33;;;34.70;51.60;;;;;;4968526;28;20450;-74
2023/06/11 07:29:51;;;;;;;7.00;6.30;;;34.70;50.90;;;;;;4975677;28;20442;-74
2023/06/11 07:32:17;;;;;;;7.63;6.50;;;35.00;50.50;;;;;;4968826;28;20557;-72
2023/06/11 07:34:44;;;;;;;6.83;6.23;;;34.60;50.50;;;;;;4972929;28;20485;-72
2023/06/11 07:37:11;;;;;;;8.03;7.23;;;34.30;51.80;;;;;;4974054;28;20597;-74
2023/06/11 07:39:38;;;;;;;8.17;7.37;;;34.70;51.20;;;;;;4978125;28;20450;-73
2023/06/11 07:42:06;;;;;;;7.93;7.23;;;34.80;50.40;;;;;;4982487;28;20509;-71
2023/06/11 07:44:35;;;;;;;6.73;6.13;;;34.80;50.50;;;;;;4974625;28;20453;-74
2023/06/11 07:47:01;;;;;;;7.50;6.13;;;35.20;50.30;;;;;;4966194;28;20520;-73
2023/06/11 07:49:29;;;;;;;7.50;6.67;;;35.50;49.80;;;;;;4969270;28;20454;-73
2023/06/11 07:51:56;;;;;;;7.43;6.47;;;35.90;49.20;;;;;;4970147;28;20442;-73
2023/06/11 07:54:22;;;;;;;7.07;6.40;;;36.00;49.00;;;;;;4971626;28;20573;-74
2023/06/11 07:56:49;;;;;;;6.57;5.83;;;36.30;48.40;;;;;;4966428;28;20474;-73
2023/06/11 07:59:16;;;;;;;7.27;6.57;;;36.30;48.30;;;;;;4975331;28;20497;-75
2023/06/11 08:01:44;;;;;;;7.87;6.70;;;36.20;48.10;;;;;;4969885;28;20469;-72
2023/06/11 08:04:11;;;;;;;8.90;6.30;;;35.80;48.00;;;;;;4967626;28;20465;-74
2023/06/11 08:06:38;;;;;;;8.53;7.17;;;35.80;48.60;;;;;;4970254;28;20574;-74
2023/06/11 08:09:05;;;;;;;7.77;7.00;;;35.70;48.50;;;;;;4967183;28;20526;-71
2023/06/11 08:11:32;;;;;;;7.60;6.90;;;35.90;48.10;;;;;;4974899;28;20882;-74
2023/06/11 08:13:59;;;;;;;10.47;6.53;;;36.20;48.00;;;;;;4967960;28;20489;-72
2023/06/11 08:16:26;;;;;;;8.80;6.73;;;36.30;47.80;;;;;;4972045;28;20513;-72
2023/06/11 08:18:54;;;;;;;7.83;7.00;;;36.40;47.40;;;;;;4968503;28;20500;-73
2023/06/11 08:21:21;;;;;;;7.90;7.10;;;35.90;47.20;;;;;;4969042;28;20448;-72
2023/06/11 08:23:48;;;;;;;6.70;6.00;;;36.10;47.70;;;;;;4965265;28;20468;-74
2023/06/11 08:26:15;;;;;;;7.07;6.37;;;36.20;47.70;;;;;;4970244;28;20456;-74
2023/06/11 08:28:42;;;;;;;7.40;6.70;;;36.70;46.90;;;;;;4978530;28;20448;-73
2023/06/11 08:31:10;;;;;;;10.60;7.00;;;36.90;46.60;;;;;;4966439;28;20970;-73
2023/06/11 08:33:38;;;;;;;7.20;6.50;;;36.80;46.90;;;;;;4966884;28;21003;-75
2023/06/11 08:36:07;;;;;;;7.00;6.43;;;36.90;46.90;;;;;;4966653;28;20458;-72
2023/06/11 08:38:34;;;;;;;7.90;7.20;;;37.40;46.10;;;;;;4966178;28;20960;-74
2023/06/11 08:41:01;;;;;;;7.60;6.90;;;36.90;45.90;;;;;;4966452;28;20521;-73
2023/06/11 08:43:28;;;;;;;7.77;6.97;;;36.80;46.40;;;;;;4970633;28;20907;-73
2023/06/11 08:45:55;;;;;;;11.17;7.03;;;37.20;46.40;;;;;;4970420;28;20449;-74
2023/06/11 08:48:24;;;;;;;8.03;7.10;;;37.50;46.10;;;;;;4966833;28;20449;-74
2023/06/11 08:50:52;;;;;;;8.87;7.97;;;37.30;46.00;;;;;;4964539;28;20522;-74
2023/06/11 08:53:20;;;;;;;6.60;6.00;;;37.50;46.20;;;;;;4965803;28;20477;-72
2023/06/11 08:55:49;;;;;;;9.07;6.50;;;37.50;45.70;;;;;;4967254;28;20536;-74
2023/06/11 08:58:16;;;;;;;8.47;7.67;;;37.20;45.40;;;;;;4969816;28;20599;-72
2023/06/11 09:00:43;;;;;;;9.90;6.77;;;37.30;45.80;;;;;;4963689;28;20965;-74
2023/06/11 09:03:10;;;;;;;8.47;7.67;;;36.70;46.20;;;;;;4976342;28;20497;-75
2023/06/11 09:05:38;;;;;;;7.83;6.97;;;36.70;46.50;;;;;;4966022;28;20541;-73
2023/06/11 09:08:07;;;;;;;6.70;6.10;;;36.50;46.10;;;;;;4977155;28;20455;-73
2023/06/11 09:10:47;;;;;;;7.77;6.97;;;36.20;46.50;;;;;;4969699;28;20446;-74
2023/06/11 09:13:14;;;;;;;9.63;7.23;;;35.80;47.30;;;;;;4968273;28;20471;-72
2023/06/11 09:15:47;;;;;;;10.87;7.57;;;35.70;47.50;;;;;;4973262;28;20833;-74
2023/06/11 09:18:19;;;;;;;9.63;7.97;;;35.90;47.40;;;;;;4969013;28;20485;-75
2023/06/11 09:20:52;;;;;;;8.17;7.37;;;35.90;47.30;;;;;;4971409;28;20449;-73
2023/06/11 09:23:26;;;;;;;9.40;7.27;;;35.60;47.60;;;;;;4968330;28;21024;-73
2023/06/11 09:25:55;;;;;;;8.20;7.40;;;35.30;48.90;;;;;;4971211;28;20809;-73
2023/06/11 09:28:28;;;;;;;8.13;6.87;;;35.60;48.20;;;;;;4967603;28;20489;-74
2023/06/11 09:30:55;;;;;;;8.20;7.40;;;35.80;47.40;;;;;;4965397;28;20439;-74
2023/06/11 09:33:22;;;;;;;12.00;8.60;;;35.60;47.50;;;;;;4968955;28;20556;-74
2023/06/11 09:35:50;;;;;;;7.43;6.83;;;35.70;47.90;;;;;;4971111;28;20504;-72
2023/06/11 09:38:18;;;;;;;10.40;7.37;;;35.60;47.00;;;;;;4967924;28;20528;-73
2023/06/11 09:40:50;;;;;;;8.87;7.27;;;35.10;47.70;;;;;;4969862;28;20543;-75
2023/06/11 09:43:22;;;;;;;7.37;6.67;;;35.30;47.90;;;;;;4967798;28;20566;-73
2023/06/11 09:45:52;;;;;;;8.27;7.20;;;35.90;47.90;;;;;;4968484;28;20465;-73
2023/06/11 09:48:19;;;;;;;8.73;7.67;;;36.30;47.30;;;;;;4970864;28;20461;-73
2023/06/11 09:50:48;;;;;;;9.00;6.63;;;36.20;47.40;;;;;;4967820;28;20462;-74
2023/06/11 09:53:16;;;;;;;12.93;6.60;;;36.30;47.20;;;;;;4970987;28;20500;-73
2023/06/11 09:55:44;;;;;;;7.67;6.37;;;36.30;47.40;;;;;;4966538;28;20450;-73
2023/06/11 09:58:13;;;;;;;9.40;8.40;;;36.60;46.60;;;;;;4964821;28;20564;-73
2023/06/11 10:00:43;;;;;;;7.40;6.80;;;36.40;45.80;;;;;;4972987;28;20544;-73
2023/06/11 10:03:10;;;;;;;8.03;7.33;;;36.30;46.70;;;;;;4969121;28;20896;-73
2023/06/11 10:05:36;;;;;;;8.50;7.80;;;36.10;46.10;;;;;;4979747;28;20480;-72
2023/06/11 10:08:08;;;;;;;8.17;7.43;;;36.00;46.30;;;;;;4974334;28;20454;-74
2023/06/11 10:10:41;;;;;;;8.93;8.03;;;35.40;46.90;;;;;;4973778;28;20492;-75
2023/06/11 10:13:09;;;;;;;9.30;7.93;;;35.40;47.50;;;;;;4970283;28;20648;-72
2023/06/11 10:15:37;;;;;;;8.87;7.93;;;35.20;47.90;;;;;;4968842;28;21015;-74
2023/06/11 10:18:15;;;;;;;8.37;7.50;;;34.80;47.60;;;;;;4967251;28;21039;-73
2023/06/11 10:20:52;;;;;;;6.80;6.17;;;34.30;48.00;;;;;;4964404;28;20442;-71
2023/06/11 10:23:20;;;;;;;8.37;7.20;;;34.40;48.90;;;;;;4968369;28;21046;-73
2023/06/11 10:25:54;;;;;;;8.53;7.77;;;34.40;48.70;;;;;;4962195;28;20461;-73
2023/06/11 10:28:22;;;;;;;8.27;7.47;;;34.20;48.50;;;;;;4964894;28;20446;-74
2023/06/11 10:30:54;;;;;;;7.00;6.40;;;34.00;49.00;;;;;;4965468;28;20779;-74
2023/06/11 10:33:35;;;;;;;7.03;6.30;;;34.20;49.10;;;;;;4968938;28;20471;-73
2023/06/11 10:36:02;;;;;;;8.20;7.40;;;34.20;49.70;;;;;;4965791;28;20469;-74
2023/06/11 10:38:30;;;;;;;8.03;7.03;;;33.80;49.40;;;;;;4969536;28;20481;-71
2023/06/11 10:41:02;;;;;;;8.43;7.00;;;33.20;50.10;;;;;;4970372;28;20536;-73
2023/06/11 10:43:32;;;;;;;7.30;6.60;;;32.40;50.10;;;;;;4965797;28;20497;-74
2023/06/11 10:46:03;;;;;;;8.13;7.20;;;31.90;51.30;;;;;;4964305;28;20902;-75
2023/06/11 10:48:32;;;;;;;7.00;6.30;;;31.50;51.90;;;;;;4966716;28;20442;-73
2023/06/11 10:51:02;;;;;;;7.63;6.90;;;31.20;52.30;;;;;;4963122;28;20529;-73
2023/06/11 10:53:40;;;;;;;7.20;6.50;;;30.90;53.60;;;;;;4971156;28;20470;-72
2023/06/11 10:56:08;;;;;;;9.93;6.83;;;30.90;54.30;;;;;;4971360;28;20450;-72
2023/06/11 10:58:36;;;;;;;10.07;6.10;;;30.70;53.80;;;;;;4969418;28;20493;-74
2023/06/11 11:01:06;;;;;;;17.60;7.70;;;30.80;53.70;;;;;;4970615;28;20454;-73
2023/06/11 11:03:35;;;;;;;7.73;6.93;;;30.60;53.00;;;;;;4968717;28;20504;-71
2023/06/11 11:06:03;;;;;;;7.37;6.77;;;30.50;53.20;;;;;;4968163;28;21229;-73
2023/06/11 11:08:30;;;;;;;9.30;7.80;;;30.40;53.20;;;;;;4972985;28;20444;-73
2023/06/11 11:11:00;;;;;;;8.93;7.30;;;30.40;53.70;;;;;;4967302;28;20446;-73
2023/06/11 11:13:27;;;;;;;8.40;6.67;;;30.60;53.80;;;;;;4972705;28;20469;-71
2023/06/11 11:15:55;;;;;;;14.53;7.40;;;30.80;52.80;;;;;;4974266;28;20928;-74
2023/06/11 11:18:22;;;;;;;7.00;6.40;;;30.80;52.10;;;;;;4973610;28;20506;-72
2023/06/11 11:20:52;;;;;;;6.80;6.20;;;30.60;51.70;;;;;;4972387;28;20504;-74
2023/06/11 11:23:19;;;;;;;7.43;6.83;;;30.60;51.60;;;;;;4974758;28;20466;-73
2023/06/11 11:25:47;;;;;;;13.63;7.63;;;30.50;50.20;;;;;;4970957;28;20485;-72
2023/06/11 11:28:14;;;;;;;8.90;6.80;;;30.50;50.20;;;;;;4975405;28;20511;-73
2023/06/11 11:30:41;;;;;;;7.50;6.80;;;30.50;50.20;;;;;;4968665;28;20568;-73
2023/06/11 11:33:07;;;;;;;7.63;6.07;;;30.50;50.10;;;;;;4968972;28;20564;-74
2023/06/11 11:35:46;;;;;;;8.47;6.83;;;30.20;49.80;;;;;;4964739;28;20450;-73
2023/06/11 11:38:14;;;;;;;8.33;7.60;;;30.20;50.40;;;;;;4967694;28;20490;-73
2023/06/11 11:40:41;;;;;;;6.63;5.80;;;30.40;50.50;;;;;;4969995;28;20501;-73
2023/06/11 11:43:11;;;;;;;8.67;7.10;;;30.50;50.20;;;;;;4970084;28;20482;-73
2023/06/11 11:45:38;;;;;;;7.17;6.47;;;30.40;50.30;;;;;;4970521;28;20449;-72
2023/06/11 11:48:08;;;;;;;6.27;5.77;;;30.50;50.40;;;;;;4967586;28;20448;-74
2023/06/11 11:50:35;;;;;;;7.63;6.60;;;30.40;49.30;;;;;;4971635;28;20440;-74
2023/06/11 11:53:04;;;;;;;7.80;7.07;;;30.50;50.30;;;;;;4973379;28;21007;-73
2023/06/11 11:55:34;;;;;;;5.77;5.27;;;30.40;49.70;;;;;;4969278;28;20445;-75
2023/06/11 11:58:05;;;;;;;9.00;6.40;;;30.50;50.10;;;;;;4970234;28;20984;-73
2023/06/11 12:00:32;;;;;;;8.07;6.20;;;30.60;49.70;;;;;;4967918;28;20449;-75
2023/06/11 12:03:06;;;;;;;7.10;6.40;;;30.60;49.80;;;;;;4968965;28;21014;-73
2023/06/11 12:05:33;;;;;;;6.60;6.00;;;30.60;50.10;;;;;;4965664;28;20451;-74
2023/06/11 12:08:00;;;;;;;7.03;6.33;;;30.60;49.50;;;;;;4971415;28;20456;-74
2023/06/11 12:10:27;;;;;;;8.37;6.57;;;30.40;49.30;;;;;;4966721;28;20550;-74
2023/06/11 12:12:55;;;;;;;7.30;6.70;;;30.50;49.70;;;;;;4970182;28;20837;-74
2023/06/11 12:15:22;;;;;;;7.50;6.80;;;30.30;49.30;;;;;;4969792;28;20538;-72
2023/06/11 12:17:49;;;;;;;9.80;7.33;;;30.10;49.40;;;;;;4971242;28;20580;-75
2023/06/11 12:20:15;;;;;;;7.83;7.13;;;30.10;49.70;;;;;;4966798;28;20451;-74
2023/06/11 12:22:42;;;;;;;7.13;6.47;;;30.30;49.40;;;;;;4968141;28;20470;-72
2023/06/11 12:25:10;;;;;;;9.50;6.20;;;30.30;49.60;;;;;;4968311;28;20450;-74
2023/06/11 12:27:38;;;;;;;6.90;5.77;;;30.50;49.40;;;;;;4969411;28;20586;-73
2023/06/11 12:30:07;;;;;;;13.97;12.50;;;30.50;49.00;;;;;;4972877;28;20456;-74
2023/06/11 12:32:35;;;;;;;8.63;6.60;;;30.50;49.30;;;;;;4967184;28;20473;-74
2023/06/11 12:35:02;;;;;;;7.00;6.40;;;30.50;49.10;;;;;;4979781;28;20468;-74
2023/06/11 12:37:30;;;;;;;7.27;6.57;;;30.60;48.60;;;;;;4979229;28;20518;-72
2023/06/11 12:39:57;;;;;;;7.13;6.03;;;30.50;48.60;;;;;;4976606;28;20505;-74
2023/06/11 12:42:24;;;;;;;6.97;6.27;;;30.50;48.80;;;;;;4969979;28;20862;-74
2023/06/11 12:44:51;;;;;;;6.93;6.33;;;30.40;49.50;;;;;;4966604;28;20914;-74
2023/06/11 12:47:19;;;;;;;12.70;6.73;;;30.30;49.10;;;;;;4967051;28;20537;-73
2023/06/11 12:49:46;;;;;;;8.17;6.63;;;30.30;48.50;;;;;;4968715;28;20540;-74